Tiempo atmosférico en la estación meteorológica de San Fernando, Cádiz (28 m.)



Fecha
DESCASC
Temp. máxima en grados centígrados (hora)
DESCASC
Temp. mínima en grados centígrados (hora)
DESCASC
Temp. media en grados centígrados
DESCASC
Racha de viento máxima en m/sg (hora)
DESCASC
Velocidad máxima media en intervalos de 10 minutos(hora)
DESCASC
Precipitaciones diarias en mm
DESCASC
Precipitaciones de 00:00 a 06:00 en mm
DESCASC
Precipitaciones de 06:00 a 12:00 en mm
DESCASC
Precipitaciones de 12:00 a 18:00 en mm
DESCASC
Precipitaciones de 18:00 a 24:00 en mm
DESCASC
03-12-2020 19.3 (15:10) 11.5 (06:40) 15.4 8.33 (15:50) 4.72 (16:10) 0 0 0 0 0
02-12-2020 17.2 (17:00) 12.1 (07:20) 14.7 5.28 (16:40) 3.61 (16:30) 0 0 0 0 0
01-12-2020 20.6 (13:40) 13 (08:30) 16.8 7.22 (00:10) 4.44 (00:20) 0 0 0 0 0
30-11-2020 19.7 (14:40) 14.9 (00:00) 17.3 13.33 (13:40) 6.94 (13:20) 0 0 0 0 0
29-11-2020 16.7 (14:00) 14.1 (00:00) 15.4 11.39 (02:50) 5 (07:00) 48.2 22 15.2 11 0
28-11-2020 18.8 (14:40) 10.9 (00:00) 14.8 11.11 (15:10) 5.56 (15:10) 1.1 0 0.2 0 0.9
27-11-2020 15.3 (12:50) 9.1 (00:00) 12.2 6.39 (13:50) 3.89 (13:50) 0.1 0 0.1 0 0
26-11-2020 14.6 (15:00) 10.2 (00:00) 12.4 13.89 (08:50) 6.11 (09:50) 36.4 0.6 26.6 4.7 4.5
25-11-2020 18.4 (12:00) 12.9 (00:00) 15.6 12.5 (11:20) 6.67 (11:20) 29.4 0 2 21 6.4
24-11-2020 20.8 (14:50) 12.7 (00:00) 16.7 9.44 (16:20) 4.72 (21:40) 0 0 0 0 0
23-11-2020 20.4 (14:20) 13.7 (00:00) 17 11.11 (15:10) 5.83 (14:50) 0 0 0 0 0
22-11-2020 20.2 (14:30) 14 (00:00) 17.1 14.44 (01:40) 7.5 (11:00) 0 0 0 0 0
21-11-2020 21 (13:20) 16.5 (00:00) 18.8 16.11 (16:00) 7.78 (15:40) 0 0 0 0 0
20-11-2020 23.2 (15:50) 16.4 (00:00) 19.8 10.56 (11:20) 5.83 (11:50) 0 0 0 0 0
19-11-2020 22.5 (13:30) 16.5 (00:00) 19.5 13.33 (14:40) 6.67 (11:10) 0 0 0 0 0
18-11-2020 23.3 (14:40) 15.8 (00:00) 19.5 10.28 (13:20) 5 (16:20) 0 0 0 0 0
17-11-2020 20.7 (16:00) 14.6 (00:00) 17.7 4.44 (20:20) 2.78 (20:20) 0.1 0.1 0 0 0
16-11-2020 20.7 (13:00) 16.4 (00:00) 18.6 5.28 (00:30) 3.33 (15:40) 0 0 0 0 0
15-11-2020 26.9 (15:40) 15.9 (00:00) 21.4 6.67 (19:10) 3.06 (19:10) 0 0 0 0 0
14-11-2020 20.6 (14:40) 16.9 (00:00) 18.8 7.22 (13:30) 3.61 (15:00) 6.4 0 6.4 0 0
13-11-2020 23.2 (13:00) 16.6 (00:00) 19.9 7.78 (13:30) 3.89 (13:10) 0 0 0 0 0
12-11-2020 22.2 (15:20) 16.8 (00:00) 19.5 12.22 (10:40) 6.11 (13:40) 0 0 0 0 0
11-11-2020 22.3 (14:40) 16.3 (00:00) 19.3 14.44 (11:50) 7.5 (11:50) 0 0 0 0 0
10-11-2020 22.8 (17:20) 13.6 (00:00) 18.2 7.22 (22:00) 4.17 (22:10) 0 0 0 0 0
09-11-2020 20 (14:50) 14.4 (00:00) 17.2 5.28 (16:00) 3.61 (15:50) 4.7 0 4.7 0 0
08-11-2020 22.5 (15:20) 14.4 (00:00) 18.4 5.83 (14:00) 3.33 (17:00) 0 0 0 0 0
07-11-2020 21.7 (15:20) 14.8 (00:00) 18.3 18.33 (01:00) 7.78 (01:00) 4 4 0 0 0
06-11-2020 22.9 (12:00) 18 (00:00) 20.4 10.83 (23:59) 6.39 (23:59) 0.3 0.3 0 0 0
05-11-2020 24.4 (14:50) 15.2 (00:00) 19.8 12.22 (23:10) 6.39 (23:00) 7.6 5.9 1.7 0 0

Gráficas

Temp. máximas Temp. mínimas Temp. medias Precipitaciones Rachas de viento máximas Velocidades máximas media en intervalos de 10 minutos

Datos horarios

Fecha y hora oficial Temperatura (ºC) Velocidad del viento (km/h) Dirección del viento Racha (km/h) Dirección de racha Precipitación (mm) Presión (hPa) Tendencia (hPa) Humedad (%)
2020-12-04 23:00:00 11.3 31 Noroeste 53 Noroeste 0 1001.3 0.6 59
2020-12-04 22:00:00 11.6 28 Noroeste 54 Noroeste 0 1000.9 -- 59
2020-12-04 21:00:00 11.3 27 Noroeste 49 Noroeste 0 1000.8 -- 64
2020-12-04 20:00:00 11.5 28 Noroeste 51 Noroeste 0 1000.7 -- 68
2020-12-04 19:00:00 11.3 27 Noroeste 55 Noroeste 0 1000.4 -- 68
2020-12-04 18:00:00 12.2 28 Noroeste 66 Noroeste 0.4 999.5 -- 78
2020-12-04 17:00:00 12.1 34 Oeste 62 Oeste 1.7 999.4 -- 79
2020-12-04 16:00:00 15.4 34 Oeste 55 Noroeste 0.3 998.5 -- 65
2020-12-04 15:00:00 16.4 27 Noroeste 51 Noroeste 0 999.4 -- 63
2020-12-04 14:00:00 16 31 Oeste 51 Oeste 0 1000.5 -- 67
2020-12-04 13:00:00 15.4 29 Noroeste 55 Oeste 0.6 1001.9 -- 79
2020-12-04 12:00:00 14.9 30 Oeste 54 Oeste 0.5 1002.8 -- 81
2020-12-04 11:00:00 15.3 31 Oeste 55 Oeste 0.8 1003.4 -- 82
2020-12-04 10:00:00 14.6 32 Oeste 55 Oeste 2.8 1003.9 -- 86
2020-12-04 09:00:00 16.7 32 Oeste 56 Oeste 0 1003.2 -- 62
2020-12-04 08:00:00 15.9 27 Oeste 45 Oeste 0 1003.5 -- 69
2020-12-04 07:00:00 14.9 19 Oeste 50 Noroeste 0.2 1004.4 -- 83
2020-12-04 06:00:00 15.2 29 Oeste 53 Noroeste 0 1005 -- 78
2020-12-04 05:00:00 15.8 18 Oeste 34 Oeste 0 1005.7 -- 68
2020-12-04 04:00:00 15.4 19 Oeste 30 Oeste 0 1006.5 -- 66
2020-12-04 03:00:00 14.7 14 Noroeste 27 Noroeste 0 1007.1 -- 66
2020-12-04 02:00:00 14.7 14 Noroeste 31 Noroeste 0 1007.7 -- 63
2020-12-04 01:00:00 14.9 19 Noroeste 31 Noroeste 0 1008.3 -- 70
2020-12-04 00:00:00 16 15 Noroeste 26 Noroeste 0 1008.6 -- 70
2020-12-03 23:00:00 15.9 12 Oeste 21 Oeste 0 1008.8 -- 71
2020-12-03 22:00:00 15.1 13 Oeste 23 Noroeste 0 1009.1 -- 74
2020-12-03 21:00:00 15.5 12 Oeste 23 Oeste 0 1008.9 -- 73
2020-12-03 20:00:00 15.1 13 Oeste 22 Oeste 0 1008.7 -- 75
2020-12-03 19:00:00 15 13 Oeste 21 Oeste 0 1008.8 -- 76
2020-12-03 18:00:00 15.5 12 Oeste 23 Oeste 0 1008.8 -- 76
2020-12-03 17:00:00 16.9 14 Oeste 28 Oeste 0 1008.8 -- 74
2020-12-03 16:00:00 18.2 12 Sudoeste 30 Sur 0 1008.7 -- 70
2020-12-03 15:00:00 19 14 Sur 24 Sur 0 1009.2 -- 69
2020-12-03 14:00:00 18.5 13 Sur 24 Sur 0 1010.1 -- 67
2020-12-03 13:00:00 18.5 9 Sur 16 Sur 0 1011 -- 69
2020-12-03 12:00:00 16.7 6 Este 16 Este 0 1011.9 -- 76
2020-12-03 11:00:00 14.9 7 Este 17 Este 0 1011.9 -- 83
2020-12-03 10:00:00 12.6 9 Este 15 Este 0 1011.8 -- 88
2020-12-03 09:00:00 12.4 7 Este 11 Este 0 1011.2 -- 88
2020-12-03 08:00:00 11.8 3 Nordeste 11 Sudeste 0 1011 -- 88
2020-12-03 07:00:00 11.5 6 Sudeste 10 Sudeste 0 1010.3 -- 88
2020-12-03 06:00:00 11.8 4 Sudeste 9 Este 0 1010.3 -- 86
2020-12-03 05:00:00 12.1 0 Calma 14 Este 0 1010.5 -- 86
2020-12-03 04:00:00 12.7 6 Este 14 Este 0 1010.9 -- 84
2020-12-03 03:00:00 13.3 9 Este 17 Este 0 1010.7 -- 83
2020-12-03 02:00:00 13.4 12 Este 19 Este 0 1011.2 -- 83
2020-12-03 01:00:00 13.5 10 Este 18 Este 0 1011.5 -- 86
2020-12-03 00:00:00 13.4 6 Este 14 Este 0 1011.7 -- 89
2020-12-02 23:00:00 13.7 2 Este 7 Sudeste 0 1011.7 -- 87
2020-12-02 22:00:00 14.3 2 Nordeste 6 Norte 0 1011.7 -- 85
2020-12-02 21:00:00 14.5 0 Calma 6 Nordeste 0 1011.5 -- 85
2020-12-02 20:00:00 15 0 Calma 7 Noroeste 0 1011.5 -- 83
2020-12-02 19:00:00 15.3 4 Noroeste 7 Noroeste 0 1011 -- 82
2020-12-02 18:00:00 16 4 Noroeste 14 Norte 0 1010.7 -- 79
2020-12-02 17:00:00 17.1 7 Noroeste 19 Noroeste 0 1010.8 -- 71
2020-12-02 16:00:00 16.8 11 Noroeste 18 Noroeste 0 1010.8 -- 72
2020-12-02 15:00:00 16.5 8 Noroeste 14 Noroeste 0 1010.9 -- 73
2020-12-02 14:00:00 16.3 10 Noroeste 14 Noroeste 0 1011.1 -- 83
2020-12-02 13:00:00 15.9 8 Noroeste 14 Oeste 0 1012.2 -- 83
2020-12-02 12:00:00 15.5 4 Oeste 8 Oeste 0 1012.7 -- 83
2020-12-02 11:00:00 14.3 4 Oeste 6 Oeste 0 1013 -- 84
2020-12-02 10:00:00 12.8 2 Nordeste 5 Este 0 1012.8 -- 86
2020-12-02 09:00:00 12.7 0 Calma 3 Norte 0 1012.4 -- 88
2020-12-02 08:00:00 12.2 0 Calma 6 Sudeste 0 1012.4 -- 88
2020-12-02 07:00:00 12.3 2 Sudeste 5 Este 0 1012.5 -- 89
2020-12-02 06:00:00 12.9 0 Calma 6 Nordeste 0 1012.8 -- 89
2020-12-02 05:00:00 12.5 3 Nordeste 10 Nordeste 0 1013 -- 89
2020-12-02 04:00:00 12.7 4 Este 14 Este 0 1013.5 -- 89
2020-12-02 03:00:00 13.1 5 Este 11 Este 0 1013.9 -- 88
2020-12-02 02:00:00 14 6 Este 10 Nordeste 0 1014.5 -- 87
2020-12-02 01:00:00 14.8 3 Nordeste 6 Nordeste 0 1015.3 -- 86
2020-12-02 00:00:00 15.1 0 Calma 4 Norte 0 1015.5 -- 85
2020-12-01 23:00:00 15.1 3 Norte 9 Norte 0 1015.7 -- 84
2020-12-01 22:00:00 15.7 6 Norte 12 Norte 0 1015.5 -- 82
2020-12-01 21:00:00 15.9 4 Norte 10 Norte 0 1015.5 -- 80
2020-12-01 20:00:00 16.7 4 Noroeste 8 Noroeste 0 1015.4 -- 79
2020-12-01 19:00:00 17.2 5 Noroeste 13 Norte 0 1015.4 -- 76
2020-12-01 18:00:00 17.6 4 Noroeste 17 Oeste 0 1015.3 -- 76
2020-12-01 17:00:00 18.5 10 Noroeste 17 Oeste 0 1015.4 -- 70
2020-12-01 16:00:00 18.6 10 Oeste 16 Oeste 0 1015.4 -- 68
2020-12-01 15:00:00 18.7 11 Oeste 17 Oeste 0 1015.9 -- 69
2020-12-01 14:00:00 20.3 4 Oeste 12 Sudeste 0 1016.5 -- 59
2020-12-01 13:00:00 19.5 4 Este 17 Nordeste 0 1017.3 -- 65
2020-12-01 12:00:00 18 8 Este 16 Este 0 1018.3 -- 71
2020-12-01 11:00:00 16.5 8 Este 14 Este 0 1018.2 -- 73
2020-12-01 10:00:00 14.7 7 Este 13 Este 0 1018.5 -- 78
2020-12-01 09:00:00 13.3 4 Este 7 Este 0 1018.3 -- 81
2020-12-01 08:00:00 13.4 6 Nordeste 16 Este 0 1018.1 -- 80
2020-12-01 07:00:00 13.6 9 Este 16 Este 0 1018 -- 82
2020-12-01 06:00:00 14.3 9 Este 19 Este 0 1017.6 -- 81
2020-12-01 05:00:00 15.3 8 Este 17 Este 0 1017.6 -- 78
2020-12-01 04:00:00 15.4 4 Nordeste 14 Este 0 1018.1 -- 76
2020-12-01 03:00:00 15.6 9 Este 17 Nordeste 0 1017.9 -- 77
2020-12-01 02:00:00 15.6 12 Este 21 Este 0 1017.7 -- 76
2020-12-01 01:00:00 16 14 Este 26 Este 0 1017.2 -- 74
2020-12-01 00:00:00 15.7 16 Este 27 Este 0 1017.1 -- 77
2020-11-30 23:00:00 15.7 11 Este 22 Este 0 1017.3 -- 77
2020-11-30 22:00:00 15.7 7 Este 14 Este 0 1017.4 -- 78
2020-11-30 21:00:00 16 9 Este 24 Este 0 1016.7 -- 76
2020-11-30 20:00:00 16.3 13 Este 23 Este 0 1016.1 -- 75
2020-11-30 19:00:00 16.6 9 Este 22 Sudeste 0 1015.7 -- 73
2020-11-30 18:00:00 17.6 9 Este 33 Este 0 1015 -- 67
2020-11-30 17:00:00 18.7 14 Este 42 Este 0 1014.4 -- 63
2020-11-30 16:00:00 19 18 Este 36 Este 0 1014 -- 61
2020-11-30 15:00:00 19.6 23 Este 44 Sudeste 0 1013.8 -- 59
2020-11-30 14:00:00 19.4 25 Este 48 Sudeste 0 1013.8 -- 60
2020-11-30 13:00:00 18.7 24 Este 45 Sudeste 0 1013.8 -- 61
2020-11-30 12:00:00 18 18 Este 46 Sudeste 0 1014.3 -- 65
2020-11-30 11:00:00 17.3 22 Este 44 Este 0 1014.1 -- 68
2020-11-30 10:00:00 16.4 19 Este 43 Sudeste 0 1013.4 -- 72
2020-11-30 09:00:00 15.9 18 Sudeste 41 Sudeste 0 1013.2 -- 72
2020-11-30 08:00:00 15.7 20 Este 46 Sudeste 0 1012.5 -- 75
2020-11-30 07:00:00 15.7 22 Este 45 Sudeste 0 1011.6 -- 76
2020-11-30 06:00:00 15.7 17 Este 40 Sudeste 0 1011.6 -- 77
2020-11-30 05:00:00 15.8 20 Este 46 Sudeste 0 1011.5 -- 77
2020-11-30 04:00:00 15.8 18 Este 36 Este 0 1011.5 -- 77
2020-11-30 03:00:00 15.7 19 Este 37 Este 0 1011.7 -- 80
2020-11-30 02:00:00 15.3 15 Este 31 Sudeste 0 1012 -- 83
2020-11-30 01:00:00 15.2 12 Este 31 Sudeste 0 1012.3 -- 84
2020-11-30 00:00:00 14.9 7 Este 18 Sudeste 0 1012.4 -- 87
2020-11-29 23:00:00 15 9 Sudeste 22 Este 0 1012.1 -- 87
2020-11-29 22:00:00 14.8 12 Este 23 Sudeste 0 1011.7 -- 88
2020-11-29 21:00:00 14.5 12 Este 24 Sudeste 0 1011.2 -- 91
2020-11-29 20:00:00 14.5 9 Sudeste 20 Sudeste 0 1011.1 -- 92
2020-11-29 19:00:00 15 7 Este 19 Sudeste 0 1010.6 -- 92
2020-11-29 18:00:00 15.3 8 Este 13 Este 0 1010.4 -- 92
2020-11-29 17:00:00 15.3 7 Este 19 Sur 4.8 1010 -- 91
2020-11-29 16:00:00 15.6 2 Sur 9 Sur 4.4 1009.9 -- 89
2020-11-29 15:00:00 15.9 5 Sudeste 16 Sur 1.8 1009.8 -- 85
2020-11-29 14:00:00 16.7 5 Sudeste 24 Sudeste 0 1010 -- 83
2020-11-29 13:00:00 15.8 10 Sudeste 25 Sudeste 0 1010.1 -- 93
2020-11-29 12:00:00 15.1 9 Este 19 Sudeste 0 1010.7 -- 94
2020-11-29 11:00:00 14.5 6 Este 16 Este 0.7 1010.8 -- 94
2020-11-29 10:00:00 14.5 5 Sudeste 18 Sudeste 0.8 1010.1 -- 94
2020-11-29 09:00:00 14.2 9 Este 23 Sudeste 1.9 1009.4 -- 94
2020-11-29 08:00:00 14.8 8 Sudeste 29 Sur 8.4 1008.9 -- 94
2020-11-29 07:00:00 15 18 Sur 39 Sur 3.4 1008.3 -- 94
2020-11-29 06:00:00 14.4 13 Sudeste 32 Sur 1 1007.5 -- 93
2020-11-29 05:00:00 14.9 10 Sudeste 27 Sudeste 0.2 1007.8 -- 93
2020-11-29 04:00:00 15.1 4 Oeste 15 Sur 0.3 1007.7 -- 93
2020-11-29 03:00:00 15.4 14 Sur 41 Sur 15.4 1007.3 -- 93
2020-11-29 02:00:00 15.7 8 Sudeste 20 Sudeste 2.1 1007 -- 92
2020-11-29 01:00:00 15.6 4 Sur 28 Sur 3 1007.3 -- 89
2020-11-29 00:00:00 16.1 12 Sur 30 Sudoeste 0 1007 -- 83
2020-11-28 23:00:00 17 10 Sur 24 Sur 0 1006.9 -- 83
2020-11-28 22:00:00 16.9 12 Sudoeste 25 Sudoeste 0.1 1006.2 -- 80
2020-11-28 21:00:00 16.6 16 Sudoeste 31 Sudoeste 0.8 1006.6 -- 80
2020-11-28 20:00:00 16.9 6 Sur 15 Sudoeste 0 1006.1 -- 74
2020-11-28 19:00:00 16.9 6 Sur 13 Sudoeste 0 1005.9 -- 76
2020-11-28 18:00:00 17.1 7 Sudoeste 16 Sudoeste 0 1005.7 -- 70
2020-11-28 17:00:00 17.5 9 Sudoeste 24 Sudoeste 0 1005.3 -- 67
2020-11-28 16:00:00 17.6 13 Sudoeste 40 Sudoeste 0 1005.1 -- 60
2020-11-28 15:00:00 18 18 Sudoeste 32 Sudoeste 0 1005.1 -- 64
2020-11-28 14:00:00 17.8 14 Oeste 28 Sudoeste 0 1005.4 -- 61
2020-11-28 13:00:00 17.9 15 Sudoeste 30 Sudoeste 0 1005.8 -- 61
2020-11-28 12:00:00 17 12 Sudoeste 26 Oeste 0 1006.4 -- 65
2020-11-28 11:00:00 16.6 11 Oeste 21 Oeste 0 1006.2 -- 67
2020-11-28 10:00:00 14.5 4 Sudoeste 18 Oeste 0.2 1005.7 -- 79
2020-11-28 09:00:00 14.7 6 Sudoeste 12 Sudoeste 0 1005 -- 74
2020-11-28 08:00:00 14.2 6 Oeste 14 Oeste 0 1004.3 -- 75
2020-11-28 07:00:00 13.6 6 Oeste 13 Oeste 0 1003.8 -- 79
2020-11-28 06:00:00 11.5 5 Sudoeste 8 Sudeste 0 1003.6 -- 86
2020-11-28 05:00:00 12.4 3 Sur 6 Sudeste 0 1003.5 -- 82
2020-11-28 04:00:00 11 4 Sudeste 8 Sudeste 0 1003.6 -- 88
2020-11-28 03:00:00 12 4 Sudeste 6 Sudeste 0 1003.6 -- 83
2020-11-28 02:00:00 12.2 3 Sudeste 7 Sudeste 0 1003.9 -- 85
2020-11-28 01:00:00 12 3 Sudeste 6 Sudeste 0 1004 -- 88
2020-11-28 00:00:00 11.1 4 Este 6 Sudeste 0 1003.8 -- 90
2020-11-27 23:00:00 11.2 3 Sudeste 11 Sudeste 0 1003.7 -- 90
2020-11-27 22:00:00 11.5 6 Sudeste 13 Sudeste 0 1003.7 -- 88
2020-11-27 21:00:00 11.6 5 Sudeste 11 Sudeste 0 1003.4 -- 86
2020-11-27 20:00:00 12 6 Sudeste 15 Este 0 1003.4 -- 85
2020-11-27 19:00:00 13.4 8 Sudeste 13 Sudeste 0 1002.9 -- 78
2020-11-27 18:00:00 14.6 5 Noroeste 12 Oeste 0 1002.4 -- 74
2020-11-27 17:00:00 15 12 Oeste 19 Oeste 0 1002.4 -- 71
2020-11-27 16:00:00 14.5 10 Sudoeste 21 Sudoeste 0 1002 -- 75
2020-11-27 15:00:00 14.2 9 Oeste 21 Sudoeste 0 1001.9 -- 74
2020-11-27 14:00:00 14.9 11 Sudoeste 23 Sudoeste 0 1002.2 -- 73
2020-11-27 13:00:00 14.8 9 Sudoeste 20 Sur 0 1002.7 -- 75
2020-11-27 12:00:00 13.9 7 Sudeste 20 Este 0 1003.5 -- 83
2020-11-27 11:00:00 13.3 10 Este 16 Sudeste 0 1003.7 -- 85
2020-11-27 10:00:00 11.7 7 Este 14 Sudeste 0 1003.6 -- 87
2020-11-27 09:00:00 10.1 5 Sudeste 17 Sudeste 0.1 1003.2 -- 87
2020-11-27 08:00:00 9.4 8 Este 16 Este 0 1003 -- 86
2020-11-27 07:00:00 9.5 9 Este 15 Este 0 1002.6 -- 87
2020-11-27 06:00:00 9.4 8 Este 16 Este 0 1002.4 -- 88
2020-11-27 05:00:00 9.3 9 Este 17 Este 0 1002.7 -- 89
2020-11-27 04:00:00 9.3 9 Este 21 Este 0 1003.1 -- 90
2020-11-27 03:00:00 9.3 10 Este 18 Este 0 1003.1 -- 91
2020-11-27 02:00:00 9.5 5 Este 13 Este 0 1003.4 -- 91
2020-11-27 01:00:00 9.7 8 Este 15 Este 0 1003.9 -- 91
2020-11-27 00:00:00 10.2 10 Este 18 Este 0.1 1004 -0.2 91
2020-11-26 23:00:00 11 9 Este 22 Sudeste 1.3 1004.2 -- 90
2020-11-26 22:00:00 10.8 7 Este 15 Sudeste 0 1004.3 -- 90
2020-11-26 21:00:00 11.4 5 Sur 22 Sur 0 1004.2 -- 90
2020-11-26 20:00:00 10.8 4 Sudeste 18 Sur 0.1 1004 -- 91
2020-11-26 19:00:00 11.1 6 Sudeste 19 Sudeste 3 1004 -- 90
2020-11-26 18:00:00 11.3 9 Sur 30 Sudoeste 3.6 1003.8 -- 86
2020-11-26 17:00:00 12.3 19 Sudoeste 42 Sur 0.1 1003.6 -- 77
2020-11-26 16:00:00 12.9 8 Sudeste 40 Sur 1 1002.8 -- 77
2020-11-26 15:00:00 14.4 8 Sur 38 Sudeste 0 1002.7 -- 71
2020-11-26 14:00:00 13.5 6 Sudeste 40 Sudeste 0 1003.1 -- 79
2020-11-26 13:00:00 12.8 13 Sudeste 33 Sudeste 0 1003.5 -- 84
2020-11-26 12:00:00 12.8 10 Sur 31 Sudoeste 0.3 1004 -- 88
2020-11-26 11:00:00 11.9 18 Sudoeste 45 Sudoeste 5.2 1004.5 -- 89
2020-11-26 10:00:00 12.2 19 Sur 44 Sur 4.6 1003.9 -- 91
2020-11-26 09:00:00 11.3 21 Sudoeste 50 Sur 9.9 1003.9 -- 91
2020-11-26 08:00:00 12.9 12 Sudeste 41 Sudeste 2.8 1003 -- 91
2020-11-26 07:00:00 13.5 8 Sur 34 Sudoeste 3.8 1003 -- 89
2020-11-26 06:00:00 13.5 5 Sudeste 27 Sudeste 0 1002.9 -- 86
2020-11-26 05:00:00 13.2 6 Sudeste 27 Sur 0 1002.7 -- 90
2020-11-26 04:00:00 12.9 10 Sudeste 22 Sudeste 0 1003.5 -- 91
2020-11-26 03:00:00 12.6 6 Sudeste 21 Sudeste 0.2 1004.3 -- 92
2020-11-26 02:00:00 13 6 Sudeste 20 Sudeste 0.2 1004.9 -- 92
2020-11-26 01:00:00 13 6 Sudeste 15 Sudeste 0.2 1006 -- 92
2020-11-26 00:00:00 13.3 4 Sudeste 12 Sur 1.2 1006.7 -- 91
2020-11-25 23:00:00 13.2 2 Este 21 Oeste 0 1006.7 -- 89
2020-11-25 22:00:00 13.4 16 Oeste 27 Oeste 3.2 1006.6 -- 93
2020-11-25 21:00:00 13.8 7 Sudeste 22 Sudeste 0.2 1006 -- 93
2020-11-25 20:00:00 13.6 9 Sudeste 27 Sudeste 0.9 1006.8 -- 93
2020-11-25 19:00:00 13.3 12 Sudeste 24 Sudeste 0.9 1006.7 -- 93
2020-11-25 18:00:00 13.5 11 Sudeste 24 Sudeste 0.6 1006.9 -- 93
2020-11-25 17:00:00 13.7 11 Sudeste 24 Sudeste 0.3 1007.8 -- 93
2020-11-25 16:00:00 14 12 Sudeste 22 Sudeste 2.4 1007.9 -- 93
2020-11-25 15:00:00 14.4 6 Sur 28 Sur 7 1009.3 -- 92
2020-11-25 14:00:00 14.7 11 Sur 31 Sudoeste 7.1 1009.4 -- 91
2020-11-25 13:00:00 14.5 13 Sudoeste -- -- -- 1011.3 -- 85
2020-11-25 12:00:00 18.1 14 Sur 45 Sudoeste 0.1 1011.6 -- 81
2020-11-25 11:00:00 17.1 22 Sur 44 Sur 0 1012.4 -- 89
2020-11-25 10:00:00 17.1 15 Sur 32 Sur 0 1012.5 -- 92
2020-11-25 09:00:00 16.2 8 Sur 21 Sur 0 1012.2 -- 92
2020-11-25 08:00:00 16.7 8 Sur 23 Sudoeste 0 1012.5 -- 92
2020-11-25 07:00:00 15.3 3 Sudeste 16 Sudeste 1.9 1013.1 -- 90
2020-11-25 06:00:00 14.1 6 Sudeste 13 Sudeste 0 1013.2 -- 88
2020-11-25 05:00:00 14.4 6 Sudeste 10 Sudeste 0 1014 -- 88
2020-11-25 04:00:00 15.1 5 Sudeste 9 Este 0 1014.6 -- 85
2020-11-25 03:00:00 16.5 2 Oeste 7 Oeste 0 1015.3 -- 81
2020-11-25 02:00:00 16.6 4 Oeste 12 Oeste 0 1015.9 -- 80
2020-11-25 01:00:00 16.6 8 Oeste 15 Oeste 0 1016.5 -- 79
2020-11-25 00:00:00 16.7 11 Oeste 24 Oeste 0 1016.5 -- 77
2020-11-24 23:00:00 17.5 14 Oeste 23 Oeste 0 1016.9 -- 72
2020-11-24 22:00:00 17.5 15 Oeste 26 Oeste 0 1017 -- 74
2020-11-24 21:00:00 17.8 15 Oeste 26 Oeste 0 1016.8 -- 74
2020-11-24 20:00:00 17.8 12 Sudoeste 25 Sudoeste 0 1016.9 -- 75
2020-11-24 19:00:00 18.2 11 Sudoeste 24 Sur 0 1016.7 -- 74
2020-11-24 18:00:00 18.2 8 Sur 22 Sudeste 0 1016.7 -- 75
2020-11-24 17:00:00 18.5 9 Sur 34 Sur 0 1016.7 -- 70
2020-11-24 16:00:00 19.5 10 Sur 27 Sudoeste 0 1017.1 -- 64
2020-11-24 15:00:00 20 8 Sudeste 25 Sudeste 0 1017.4 -- 59
2020-11-24 14:00:00 20.3 12 Sur 27 Sur 0 1018.3 -- 61
2020-11-24 13:00:00 19.6 8 Sudeste 31 Sudeste 0 1019.2 -- 62
2020-11-24 12:00:00 19 10 Sudeste 28 Sudeste 0 1020.1 -- 61
2020-11-24 11:00:00 17.5 12 Sudeste 24 Sudeste 0 1020.5 -- 69
2020-11-24 10:00:00 15.4 11 Este 20 Sudeste 0 1020.4 -- 76
2020-11-24 09:00:00 13 6 Este 14 Sudeste 0 1020.1 -- 81
2020-11-24 08:00:00 13 5 Sudeste 17 Sudeste 0 1019.7 -- 79
2020-11-24 07:00:00 13.3 9 Este 17 Sudeste 0 1019.4 -- 77
2020-11-24 06:00:00 13.5 9 Este 20 Sudeste 0 1019.1 -- 77
2020-11-24 05:00:00 13.6 8 Este 23 Este 0 1019.1 -- 75
2020-11-24 04:00:00 13.9 10 Este 22 Este 0 1019.2 -- 74
2020-11-24 03:00:00 14.2 11 Este 21 Este 0 1019.7 -- 73
2020-11-24 02:00:00 14.2 9 Este 22 Sudeste 0 1020.3 -- 73
2020-11-24 01:00:00 14.4 10 Este 22 Este 0 1020.4 -- 72
2020-11-24 00:00:00 14.6 12 Este 28 Sudeste 0 1020.6 -- 71
2020-11-23 23:00:00 14.6 11 Este 25 Este 0 1021 -- 71
2020-11-23 22:00:00 14.8 11 Este 30 Este 0 1021.1 -- 70
2020-11-23 21:00:00 15.2 16 Este 30 Este 0 1020.9 -- 68
2020-11-23 20:00:00 15.5 14 Este 35 Este 0 1021 -- 68
2020-11-23 19:00:00 15.9 14 Este 28 Este 0 1021 -- 66
2020-11-23 18:00:00 17.1 13 Este 35 Este 0 1020.7 -- 60
2020-11-23 17:00:00 18.6 17 Este 40 Este 0 1020.4 -- 55
2020-11-23 16:00:00 19.3 20 Este 40 Este 0 1020.3 -- 53
2020-11-23 15:00:00 19.8 20 Este 38 Este 0 1020.4 -- 52
2020-11-23 14:00:00 20.3 19 Este 40 Este 0 1020.9 -- 52
2020-11-23 13:00:00 19.9 18 Este 34 Este 0 1021.8 -- 53
2020-11-23 12:00:00 18.7 16 Este 36 Este 0 1022.4 -- 57
2020-11-23 11:00:00 17.8 16 Este 31 Este 0 1022.6 -- 60
2020-11-23 10:00:00 16.5 14 Este 27 Este 0 1022.3 -- 64
2020-11-23 09:00:00 14.4 12 Este 28 Este 0 1021.6 -- 71
2020-11-23 08:00:00 13.7 11 Este 27 Este 0 1021.3 -- 71
2020-11-23 07:00:00 13.9 14 Este 27 Este 0 1020.9 -- 72
2020-11-23 06:00:00 13.9 12 Este 26 Este 0 1020.8 -- 72
2020-11-23 05:00:00 14 14 Este 27 Este 0 1020.9 -- 73
2020-11-23 04:00:00 14.2 15 Este 31 Este 0 1021.1 -- 72
2020-11-23 03:00:00 14.1 16 Este 28 Este 0 1021.1 -- 74
2020-11-23 02:00:00 14.2 15 Este 27 Este 0 1021.3 -- 74
2020-11-23 01:00:00 14 15 Este 27 Este 0 1021.6 -- 74
2020-11-23 00:00:00 14.1 13 Este 22 Este 0 1021.7 -- 74
2020-11-22 23:00:00 14.3 12 Este 22 Sudeste 0 1022 -- 72
2020-11-22 22:00:00 14.4 11 Este 23 Sudeste 0 1022 -- 70
2020-11-22 21:00:00 15 12 Este 36 Este 0 1021.7 -- 62
2020-11-22 20:00:00 15.4 18 Este 42 Este 0 1021.3 -- 59
2020-11-22 19:00:00 15.8 16 Este 32 Este 0 1020.9 -- 53
2020-11-22 18:00:00 17.2 18 Este 38 Este 0 1020.7 -- 47
2020-11-22 17:00:00 18.5 20 Este 40 Este 0 1020.5 -- 45
2020-11-22 16:00:00 19.3 23 Este 40 Este 0 1020.4 -- 43
2020-11-22 15:00:00 19.9 17 Este 44 Sudeste 0 1020.8 -- 42
2020-11-22 14:00:00 20.1 21 Este 46 Este 0 1021.1 -- 40
2020-11-22 13:00:00 19.5 23 Este 45 Este 0 1021.9 -- 44
2020-11-22 12:00:00 18.9 23 Este 49 Este 0 1022.4 -- 48
2020-11-22 11:00:00 18.1 27 Este 51 Este 0 1022.5 -- 53
2020-11-22 10:00:00 17.2 25 Este 50 Este 0 1022.2 -- 54
2020-11-22 09:00:00 16.2 24 Este 46 Este 0 1021.6 -- 61
2020-11-22 08:00:00 15.9 21 Este 40 Este 0 1021.2 -- 63
2020-11-22 07:00:00 15.8 16 Este 33 Este 0 1020.9 -- 65
2020-11-22 06:00:00 15.9 15 Este 38 Este 0 1020.6 -- 65
2020-11-22 05:00:00 16.2 20 Este 44 Este 0 1020.6 -- 61
2020-11-22 04:00:00 16.3 19 Este 46 Este 0 1020.4 -- 63
2020-11-22 03:00:00 16.4 24 Este 51 Este 0 1020.2 -- 67
2020-11-22 02:00:00 16.4 21 Este 52 Sudeste 0 1020.1 -- 68
2020-11-22 01:00:00 16.7 21 Este 45 Este 0 1020.5 -- 68
2020-11-22 00:00:00 16.8 21 Este 45 Este 0 1020.8 -- 68
2020-11-21 23:00:00 17 22 Este 43 Este 0 1020.6 -- 69
2020-11-21 22:00:00 16.8 16 Este 38 Este 0 1020.6 -- 71
2020-11-21 21:00:00 16.6 15 Este 37 Este 0 1020.8 -- 72
2020-11-21 20:00:00 16.9 17 Este 42 Nordeste 0 1020.6 -- 71
2020-11-21 19:00:00 17.3 18 Este 43 Sudeste 0 1020.2 -- 68
2020-11-21 18:00:00 18.4 21 Este 48 Sudeste 0 1019.6 -- 64
2020-11-21 17:00:00 19.5 24 Este 53 Este 0 1019.3 -- 60
2020-11-21 16:00:00 20.2 26 Este 58 Este 0 1018.9 -- 58
2020-11-21 15:00:00 20.7 25 Este 52 Sudeste 0 1019.1 -- 58
2020-11-21 14:00:00 20.7 26 Este 51 Este 0 1019.4 -- 61
2020-11-21 13:00:00 20.7 22 Este 48 Este 0 1019.9 -- 63
2020-11-21 12:00:00 20.4 23 Este 48 Este 0 1020.4 -- 62
2020-11-21 11:00:00 19.9 20 Este 41 Sudeste 0 1020.5 -- 66
2020-11-21 10:00:00 18.8 18 Este 39 Sudeste 0 1020.2 -- 73
2020-11-21 09:00:00 17.3 15 Este 31 Este 0 1019.7 -- 79
2020-11-21 08:00:00 16.9 15 Este 30 Este 0 1019.2 -- 78
2020-11-21 07:00:00 16.8 15 Este 32 Sudeste 0 1018.6 -- 77
2020-11-21 06:00:00 16.9 17 Este 34 Sudeste 0 1018.4 -- 75
2020-11-21 05:00:00 16.9 18 Este 39 Este 0 1018.4 -- 76
2020-11-21 04:00:00 16.6 18 Este 36 Este 0 1018.5 -- 78
2020-11-21 03:00:00 16.6 18 Este 36 Este 0 1018.6 -- 78
2020-11-21 02:00:00 16.6 19 Este 34 Este 0 1018.9 -- 79
2020-11-21 01:00:00 16.7 16 Este 35 Este 0 1019.5 -- 80
2020-11-21 00:00:00 16.6 17 Este 33 Este 0 1019.6 -- 80
2020-11-20 23:00:00 16.9 16 Este 35 Este 0 1019.6 -- 78
2020-11-20 22:00:00 16.9 17 Este 37 Sudeste 0 1019.7 -- 78
2020-11-20 21:00:00 17.2 16 Este 31 Este 0 1019.8 -- 76
2020-11-20 20:00:00 17.7 15 Este 30 Sudeste 0 1019.7 -- 71
2020-11-20 19:00:00 18.7 11 Este 26 Sudeste 0 1019.7 -- 66
2020-11-20 18:00:00 20.6 16 Este 27 Sudeste 0 1019.2 -- 59
2020-11-20 17:00:00 22.6 9 Este 24 Este 0 1019.2 -- 52
2020-11-20 16:00:00 23 10 Este 24 Este 0 1019.3 -- 52
2020-11-20 15:00:00 22.8 12 Este 25 Este 0 1019.7 -- 53
2020-11-20 14:00:00 22.7 12 Este 36 Nordeste 0 1020.5 -- 55
2020-11-20 13:00:00 21.5 16 Este 34 Este 0 1021.4 -- 58
2020-11-20 12:00:00 20.6 21 Este 38 Este 0 1022.1 -- 63
2020-11-20 11:00:00 19.8 19 Este 36 Este 0 1022.3 -- 65
2020-11-20 10:00:00 18.7 15 Este 30 Este 0 1022.3 -- 70
2020-11-20 09:00:00 16.7 8 Este 24 Sudeste 0 1022.2 -- 76
2020-11-20 08:00:00 16.7 15 Este 31 Este 0 1022.1 -- 75
2020-11-20 07:00:00 16.5 15 Este 31 Este 0 1022 -- 74
2020-11-20 06:00:00 16.8 15 Este 34 Este 0 1021.8 -- 74
2020-11-20 05:00:00 16.5 13 Este 23 Este 0 1022.3 -- 74
2020-11-20 04:00:00 16.8 12 Este 30 Nordeste 0 1022.4 -- 72
2020-11-20 03:00:00 17.1 15 Este 27 Sudeste 0 1022.7 -- 68
2020-11-20 02:00:00 17.2 15 Este 33 Este 0 1022.8 -- 69
2020-11-20 01:00:00 17.4 13 Este 35 Este 0 1023.7 -- 68
2020-11-20 00:00:00 17.5 15 Este 34 Sudeste 0 1023.7 -- 68
2020-11-19 23:00:00 17.8 11 Este 35 Este 0 1024.3 -- 68
2020-11-19 22:00:00 17.7 13 Este 31 Este 0 1023.9 -- 67
2020-11-19 21:00:00 17.8 13 Este 43 Sudeste 0 1023.8 -- 66
2020-11-19 20:00:00 18.3 15 Este 37 Sudeste 0 1023.6 -- 64
2020-11-19 19:00:00 18.9 15 Sudeste 36 Sudeste 0 1023.4 -- 62
2020-11-19 18:00:00 20 18 Este 38 Este 0 1022.9 -- 59
2020-11-19 17:00:00 21 19 Este 37 Sudeste 0 1022.8 -- 57
2020-11-19 16:00:00 21.5 21 Este 45 Sudeste 0 1022 -- 56
2020-11-19 15:00:00 22.3 23 Este 48 Este 0 1022.3 -- 55
2020-11-19 14:00:00 22.2 19 Este 48 Este 0 1022.3 -- 55
2020-11-19 13:00:00 21.9 23 Este 42 Este 0 1022.9 -- 57
2020-11-19 12:00:00 20.8 23 Este 45 Este 0 1023.6 -- 62
2020-11-19 11:00:00 20 23 Este 45 Este 0 1023.6 -- 65
2020-11-19 10:00:00 18.9 17 Este 36 Este 0 1023.2 -- 71
2020-11-19 09:00:00 17.2 18 Este 35 Este 0 1022.5 -- 78
2020-11-19 08:00:00 16.5 14 Este 31 Este 0 1021.8 -- 80
2020-11-19 07:00:00 16.7 18 Este 35 Este 0 1021.3 -- 80
2020-11-19 06:00:00 16.7 14 Este 31 Sudeste 0 1021.1 -- 80
2020-11-19 05:00:00 17.1 15 Este 31 Este 0 1020.7 -- 79
2020-11-19 04:00:00 17.1 19 Este 42 Este 0 1020.6 -- 79
2020-11-19 03:00:00 17 16 Este 32 Este 0 1020.7 -- 80
2020-11-19 02:00:00 16.9 11 Este 27 Este 0 1021 -- 80
2020-11-19 01:00:00 16.8 12 Este 24 Este 0 1021.3 -- 80
2020-11-19 00:00:00 16.8 14 Este 26 Este 0 1021.6 -- 79
2020-11-18 23:00:00 17.4 14 Este 26 Sudeste 0 1021.6 -- 78
2020-11-18 22:00:00 17.6 13 Este 26 Este 0 1021.5 -- 78
2020-11-18 21:00:00 17.8 14 Este 23 Este 0 1021.4 -- 77
2020-11-18 20:00:00 18.1 11 Este 30 Este 0 1021.1 -- 74
2020-11-18 19:00:00 18.9 14 Este 32 Sudeste 0 1020.7 -- 69
2020-11-18 18:00:00 20.2 13 Este 31 Sudeste 0 1020.4 -- 62
2020-11-18 17:00:00 21.5 13 Este 32 Este 0 1020.2 -- 59
2020-11-18 16:00:00 22.1 16 Este 31 Este 0 1020.3 -- 55
2020-11-18 15:00:00 23.1 14 Este 28 Este 0 1020.6 -- 55
2020-11-18 14:00:00 22.9 13 Este 37 Este 0 1021 -- 56
2020-11-18 13:00:00 22.2 17 Este 31 Sudeste 0 1021.7 -- 60
2020-11-18 12:00:00 21 13 Este 28 Sudeste 0 1022.3 -- 67
2020-11-18 11:00:00 20 15 Este 29 Este 0 1022.6 -- 73
2020-11-18 10:00:00 18.3 11 Este 21 Este 0 1022.5 -- 81
2020-11-18 09:00:00 16.5 12 Este 19 Sudeste 0 1022.1 -- 89
2020-11-18 08:00:00 16 9 Este 15 Sudeste 0 1021.7 -- 90
2020-11-18 07:00:00 16 9 Este 16 Este 0 1021.4 -- 90
2020-11-18 06:00:00 16.1 9 Este 17 Sudeste 0 1021.3 -- 90
2020-11-18 05:00:00 16.3 8 Este 18 Este 0 1021.1 -- 89
2020-11-18 04:00:00 16.3 10 Este 17 Este 0 1021.2 -- 89
2020-11-18 03:00:00 16.3 9 Este 20 Este 0 1021.4 -- 89
2020-11-18 02:00:00 16.6 9 Este 16 Este 0 1022 -- 88
2020-11-18 01:00:00 16.7 11 Este 21 Este 0 1022.1 -- 88
2020-11-18 00:00:00 17 6 Este 12 Este 0 1022.4 -- 85
2020-11-17 23:00:00 17.5 6 Este 12 Este 0 1022.5 -- 82
2020-11-17 22:00:00 18.1 8 Este 15 Este 0 1022.4 -- 79
2020-11-17 21:00:00 18.6 8 Este 16 Sudeste 0 1022.1 -- 80
2020-11-17 20:00:00 18.6 5 Este 9 Este 0 1022 -- 85
2020-11-17 19:00:00 19 0 Calma 5 Oeste 0 1021.7 -- 83
2020-11-17 18:00:00 19.4 4 Oeste 9 Oeste 0 1021.5 -- 82
2020-11-17 17:00:00 20 5 Oeste 14 Oeste 0 1021.6 -- 79
2020-11-17 16:00:00 20.6 7 Oeste 14 Oeste 0 1021.6 -- 75
2020-11-17 15:00:00 19.4 9 Oeste 14 Oeste 0 1021.9 -- 77
2020-11-17 14:00:00 18.9 8 Noroeste 13 Noroeste 0 1022 -- 86
2020-11-17 13:00:00 17.4 6 Noroeste 11 Oeste 0 1022.5 -- 94
2020-11-17 12:00:00 16.9 7 Noroeste 12 Noroeste 0 1023.1 -- 94
2020-11-17 11:00:00 16.6 4 Oeste 9 Sudeste 0 1023 -- 94
2020-11-17 10:00:00 16.2 3 Este 10 Este 0 1022.5 -- 94
2020-11-17 09:00:00 14.9 5 Este 12 Este 0 1021.9 -- 94
2020-11-17 08:00:00 14.8 6 Este 14 Este 0 1021.4 -- 94
2020-11-17 07:00:00 15.5 6 Este 14 Nordeste 0 1021.2 -- 94
2020-11-17 06:00:00 16.2 5 Este 13 Este 0 1020.8 -- 94
2020-11-17 05:00:00 16 5 Nordeste 9 Nordeste 0 1020.7 -- 94
2020-11-17 04:00:00 16.1 4 Este 10 Este 0.1 1020.9 -- 94
2020-11-17 03:00:00 16.3 3 Nordeste 8 Nordeste 0 1021.2 -- 94
2020-11-17 02:00:00 16.3 2 Norte 8 Este 0 1021.2 -- 94
2020-11-17 01:00:00 16.5 4 Nordeste 10 Este 0 1021.4 -- 94
2020-11-17 00:00:00 16.4 3 Norte 8 Norte 0 1021.5 -- 94
2020-11-16 23:00:00 16.8 0 Calma 7 Nordeste 0 1021.8 -- 94
2020-11-16 22:00:00 16.9 0 Calma 5 Este 0 1021.4 -- 94
2020-11-16 21:00:00 17 0 Calma 10 Noroeste 0 1021.2 -- 94
2020-11-16 20:00:00 17.6 5 Noroeste 13 Noroeste 0 1021.1 -- 94
2020-11-16 19:00:00 18.1 3 Noroeste 9 Oeste 0 1020.6 -- 94
2020-11-16 18:00:00 18.1 7 Noroeste 14 Oeste 0 1020 -- 93
2020-11-16 17:00:00 18.6 6 Oeste 14 Oeste 0 1020 -- 91
2020-11-16 16:00:00 19.5 10 Oeste 19 Oeste 0 1019.6 -- 85
2020-11-16 15:00:00 20 9 Oeste 17 Sudoeste 0 1020 -- 85
2020-11-16 14:00:00 19.9 9 Oeste 14 Oeste 0 1020.6 -- 83
2020-11-16 13:00:00 20.5 5 Oeste 12 Oeste 0 1021 -- 83
2020-11-16 12:00:00 19.8 2 Noroeste 8 Oeste 0 1021.3 -- 85
2020-11-16 11:00:00 19.4 3 Sudoeste 8 Sudoeste 0 1021.1 -- 87
2020-11-16 10:00:00 18.7 0 Calma 7 Sudeste 0 1020.7 -- 87
2020-11-16 09:00:00 17.1 4 Sudeste 10 Sudeste 0 1020 -- 85
2020-11-16 08:00:00 17.2 3 Este 6 Sur 0 1019.4 -- 86
2020-11-16 07:00:00 17.1 5 Sudeste 9 Sudeste 0 1018.6 -- 86
2020-11-16 06:00:00 17.1 3 Este 9 Sudeste 0 1018.7 -- 91
2020-11-16 05:00:00 18.4 4 Sur 14 Sur 0 1018.9 -- 88
2020-11-16 04:00:00 18.3 6 Sudoeste 10 Sudoeste 0 1019 -- 82
2020-11-16 03:00:00 18.4 4 Sudeste 17 Sudeste 0 1018.9 -- 77
2020-11-16 02:00:00 18.7 8 Sudeste 18 Sudeste 0 1018.9 -- 77
2020-11-16 01:00:00 18.7 9 Sudeste 19 Sudeste 0 1018.8 -- 76
2020-11-16 00:00:00 18.8 6 Sudeste 16 Sur 0 1019 -- 79
2020-11-15 23:00:00 19.8 6 Sudeste 14 Sur 0 1019.1 -- 74
2020-11-15 22:00:00 20.7 8 Sur 17 Sur 0 1018.7 -- 67
2020-11-15 21:00:00 21 8 Sudeste 16 Sur 0 1018.6 -- 68
2020-11-15 20:00:00 20.8 5 Sudeste 24 Sur 0 1018.3 -- 72
2020-11-15 19:00:00 22.1 10 Sur 19 Sudeste 0 1017.7 -- 61
2020-11-15 18:00:00 24.2 9 Sur 18 Sur 0 1017.3 -- 48
2020-11-15 17:00:00 25.4 8 Sur 16 Sudeste 0 1017.3 -- 43
2020-11-15 16:00:00 26.2 6 Sur 22 Sur 0 1017.3 -- 42
2020-11-15 15:00:00 26.6 8 Sur 18 Sur 0 1017.1 -- 43
2020-11-15 14:00:00 25.9 4 Sur 13 Sur 0 1017.3 -- 50
2020-11-15 13:00:00 24.3 4 Sudeste 16 Sudeste 0 1017.9 -- 55
2020-11-15 12:00:00 22.5 8 Sudeste 18 Este 0 1018.4 -- 68
2020-11-15 11:00:00 20.6 9 Este 17 Sudeste 0 1018.2 -- 76
2020-11-15 10:00:00 18 9 Sudeste 19 Sudeste 0 1018.1 -- 85
2020-11-15 09:00:00 16.8 8 Este 12 Sudeste 0 1018 -- 88
2020-11-15 08:00:00 16.4 7 Este 14 Este 0 1017.8 -- 89
2020-11-15 07:00:00 16 10 Este 16 Este 0 1017.2 -- 90
2020-11-15 06:00:00 16 4 Este 9 Nordeste 0 1017.3 -- 91
2020-11-15 05:00:00 16 6 Este 13 Este 0 1017 -- 91
2020-11-15 04:00:00 16.1 8 Este 15 Sudeste 0 1017.4 -- 91
2020-11-15 03:00:00 16.5 7 Este 16 Este 0 1017.5 -- 91
2020-11-15 02:00:00 16.6 9 Este 16 Este 0 1018 -- 91
2020-11-15 01:00:00 16.6 7 Este 13 Sudeste 0 1018.7 -- 91
2020-11-15 00:00:00 17 7 Este 12 Este 0 1018.8 -- 91
2020-11-14 23:00:00 17.9 5 Este 10 Este 0 1018.9 -- 91
2020-11-14 22:00:00 18.3 4 Sudeste 10 Este 0 1019 -- 91
2020-11-14 21:00:00 18.5 5 Sudeste 10 Sudeste 0 1018.8 -- 90
2020-11-14 20:00:00 18.8 4 Este 9 Sudeste 0 1018.5 -- 88
2020-11-14 19:00:00 19 5 Sudeste 10 Sur 0 1018.1 -- 86
2020-11-14 18:00:00 19.1 5 Sur 15 Sur 0 1017.7 -- 85
2020-11-14 17:00:00 19.8 7 Sur 18 Sur 0 1017.5 -- 85
2020-11-14 16:00:00 20.1 10 Sur 24 Sur 0 1017.2 -- 85
2020-11-14 15:00:00 20.4 13 Sur 25 Sur 0 1017.2 -- 85
2020-11-14 14:00:00 19.3 10 Sur 26 Sur 0 1017.6 -- 92
2020-11-14 13:00:00 18.8 9 Sur 18 Sur 0 1018.1 -- 93
2020-11-14 12:00:00 18.2 4 Sudeste 17 Sudeste 0 1018.7 -- 94
2020-11-14 11:00:00 18.1 4 Sudeste 22 Sur 0.8 1018.2 -- 94
2020-11-14 10:00:00 17.9 9 Sur 23 Sur 0.4 1017.9 -- 94
2020-11-14 09:00:00 17.9 8 Sur 21 Sur 0.5 1017.1 -- 93
2020-11-14 08:00:00 17.6 6 Sur 21 Sur 1.5 1016.9 -- 93
2020-11-14 07:00:00 18.4 5 Sudeste 13 Sudeste 3.2 1016.1 -- 92
2020-11-14 06:00:00 18.7 5 Sudeste 13 Sudeste 0 1015.6 -- 92
2020-11-14 05:00:00 18.3 5 Sudeste 13 Sudeste 0 1015.7 -- 91
2020-11-14 04:00:00 18.4 5 Sudeste 14 Este 0 1016 -- 88
2020-11-14 03:00:00 18.7 5 Sudeste 15 Sudeste 0 1016.2 -- 86
2020-11-14 02:00:00 18.7 5 Sudeste 19 Sudeste 0 1016.5 -- 85
2020-11-14 01:00:00 18.9 7 Sudeste 18 Sudeste 0 1016.5 -- 84
2020-11-14 00:00:00 19.1 6 Sudeste 15 Sudeste 0 1016.9 -- 82
2020-11-13 23:00:00 19 3 Sudeste 13 Sur 0 1017 -- 79
2020-11-13 22:00:00 18.7 5 Sudeste 14 Sudeste 0 1016.6 -- 76
2020-11-13 21:00:00 18.9 4 Sudeste 14 Este 0 1016.3 -- 76
2020-11-13 20:00:00 19.5 5 Sudeste 14 Sur 0 1016.1 -- 74
2020-11-13 19:00:00 20.2 4 Sudeste 17 Sudeste 0 1015.7 -- 69
2020-11-13 18:00:00 21.1 3 Sur 14 Sudeste 0 1015.2 -- 60
2020-11-13 17:00:00 21.6 5 Sudeste 19 Sur 0 1015 -- 56
2020-11-13 16:00:00 22 7 Sur 18 Sur 0 1014.9 -- 58
2020-11-13 15:00:00 22.4 10 Sur 23 Sur 0 1015 -- 54
2020-11-13 14:00:00 22.5 12 Sur 28 Sur 0 1015.4 -- 55
2020-11-13 13:00:00 23.2 13 Sur 25 Sudoeste 0 1016 -- 52
2020-11-13 12:00:00 21.9 6 Sur 20 Sur 0 1016.6 -- 62
2020-11-13 11:00:00 20.4 7 Sudeste 20 Sudeste 0 1016.8 -- 73
2020-11-13 10:00:00 18.6 8 Este 15 Sudeste 0 1016.5 -- 83
2020-11-13 09:00:00 16.9 8 Este 16 Este 0 1015.7 -- 86
2020-11-13 08:00:00 16.7 7 Este 16 Sudeste 0 1015.1 -- 86
2020-11-13 07:00:00 16.7 5 Sudeste 10 Sudeste 0 1015 -- 85
2020-11-13 06:00:00 16.8 4 Sudeste 14 Sudeste 0 1014.5 -- 85
2020-11-13 05:00:00 17.1 6 Sudeste 19 Sudeste 0 1014.3 -- 85
2020-11-13 04:00:00 16.9 7 Sudeste 20 Sudeste 0 1014.2 -- 85
2020-11-13 03:00:00 16.8 9 Sudeste 21 Este 0 1014.2 -- 85
2020-11-13 02:00:00 17 10 Este 23 Sudeste 0 1014.2 -- 84
2020-11-13 01:00:00 17.5 12 Sudeste 27 Sudeste 0 1014.7 -- 80
2020-11-13 00:00:00 17.7 12 Este 27 Este 0 1014.6 -- 79
2020-11-12 23:00:00 17.9 14 Este 29 Este 0 1014.6 -- 78
2020-11-12 22:00:00 17.8 14 Este 28 Este 0 1014.2 -- 77
2020-11-12 21:00:00 18 13 Este 27 Sudeste 0 1014.3 -- 77
2020-11-12 20:00:00 17.7 11 Este 32 Este 0 1014.5 -- 77
2020-11-12 19:00:00 18.3 16 Este 39 Este 0 1014 -- 73
2020-11-12 18:00:00 19.4 17 Este 36 Sudeste 0 1013.4 -- 67
2020-11-12 17:00:00 20.9 16 Este 33 Este 0 1013.7 -- 62
2020-11-12 16:00:00 21.4 16 Este 38 Sudeste 0 1013.5 -- 61
2020-11-12 15:00:00 22 18 Este 41 Este 0 1013.7 -- 61
2020-11-12 14:00:00 21.6 22 Este 44 Sudeste 0 1014.1 -- 61
2020-11-12 13:00:00 21.5 19 Este 38 Sudeste 0 1014.8 -- 64
2020-11-12 12:00:00 20.2 18 Este 38 Este 0 1015.5 -- 68
2020-11-12 11:00:00 19.8 18 Este 44 Sudeste 0 1015.3 -- 69
2020-11-12 10:00:00 18.7 16 Este 35 Este 0 1015.5 -- 74
2020-11-12 09:00:00 17.1 9 Este 22 Este 0 1015.9 -- 77
2020-11-12 08:00:00 16.8 10 Este 25 Este 0 1015.7 -- 77
2020-11-12 07:00:00 17.1 12 Este 27 Este 0 1015.4 -- 76
2020-11-12 06:00:00 17.3 14 Este 27 Este 0 1015.3 -- 77
2020-11-12 05:00:00 17.3 10 Este 32 Este 0 1015.3 -- 77
2020-11-12 04:00:00 17.6 15 Este 31 Este 0 1015.5 -- 77
2020-11-12 03:00:00 17.3 12 Este 32 Este 0 1016 -- 78
2020-11-12 02:00:00 17.5 14 Este 31 Este 0 1016.8 -- 78
2020-11-12 01:00:00 17.3 16 Este 29 Este 0 1016.9 -- 79
2020-11-12 00:00:00 17.3 14 Este 31 Sudeste 0 1017.6 -- 79
2020-11-11 23:00:00 17 12 Este 26 Este 0 1017.9 -- 80
2020-11-11 22:00:00 17.1 15 Este 27 Este 0 1018 -- 80
2020-11-11 21:00:00 17.3 13 Este 31 Este 0 1017.6 -- 77
2020-11-11 20:00:00 17.6 13 Este 27 Este 0 1017.5 -- 74
2020-11-11 19:00:00 18.2 14 Este 35 Este 0 1017.2 -- 69
2020-11-11 18:00:00 19.4 14 Este 39 Este 0 1016.6 -- 64
2020-11-11 17:00:00 20.4 15 Este 40 Este 0 1016.5 -- 60
2020-11-11 16:00:00 21 19 Este 44 Este 0 1016.2 -- 58
2020-11-11 15:00:00 22.1 19 Este 45 Este 0 1016.4 -- 56
2020-11-11 14:00:00 21.7 22 Este 46 Sudeste 0 1016.4 -- 59
2020-11-11 13:00:00 21.6 22 Este 48 Sudeste 0 1017.1 -- 58
2020-11-11 12:00:00 20.7 24 Este 52 Sudeste 0 1017.8 -- 61
2020-11-11 11:00:00 20.2 20 Este 46 Sudeste 0 1018.1 -- 67
2020-11-11 10:00:00 19.1 20 Este 41 Este 0 1018.2 -- 71
2020-11-11 09:00:00 17.4 18 Este 42 Este 0 1018.1 -- 77
2020-11-11 08:00:00 16.8 19 Este 38 Este 0 1017.6 -- 77
2020-11-11 07:00:00 16.7 17 Este 42 Este 0 1017.6 -- 77
2020-11-11 06:00:00 16.8 21 Este 40 Sudeste 0 1017.7 -- 77
2020-11-11 05:00:00 16.9 19 Este 35 Este 0 1018 -- 77
2020-11-11 04:00:00 17 16 Este 37 Este 0 1018.3 -- 79
2020-11-11 03:00:00 17 14 Este 28 Este 0 1019.1 -- 80
2020-11-11 02:00:00 16.7 8 Este 32 Este 0 1019.7 -- 80
2020-11-11 01:00:00 16.6 15 Este 32 Este 0 1019.6 -- 80
2020-11-11 00:00:00 16.4 12 Este 24 Este 0 1019.9 -- 81
2020-11-10 23:00:00 16.5 9 Este 26 Este 0 1020.5 -- 76
2020-11-10 22:00:00 17 13 Este 26 Este 0 1020.3 -- 73
2020-11-10 21:00:00 17.7 6 Este 14 Este 0 1019.8 -- 71
2020-11-10 20:00:00 18.3 6 Este 9 Este 0 1019.7 -- 70
2020-11-10 19:00:00 18.5 4 Sudeste 9 Sur 0 1019.5 -- 72
2020-11-10 18:00:00 20.6 5 Sur 17 Sur 0 1019.6 -- 60
2020-11-10 17:00:00 22.5 6 Nordeste 16 Nordeste 0 1018.9 -- 52
2020-11-10 16:00:00 22.4 4 Norte 17 Norte 0 1018.8 -- 50
2020-11-10 15:00:00 21.7 6 Norte 18 Norte 0 1019.2 -- 54
2020-11-10 14:00:00 21.2 7 Norte 19 Nordeste 0 1019.7 -- 56
2020-11-10 13:00:00 20.4 6 Nordeste 18 Nordeste 0 1020.8 -- 62
2020-11-10 12:00:00 18.8 8 Nordeste 20 Este 0 1021 -- 68
2020-11-10 11:00:00 16.8 7 Nordeste 18 Nordeste 0 1021.1 -- 74
2020-11-10 10:00:00 15.3 7 Nordeste 18 Nordeste 0 1021.4 -- 84
2020-11-10 09:00:00 13.8 8 Nordeste 16 Nordeste 0 1020.9 -- 91
2020-11-10 08:00:00 13.6 6 Nordeste 14 Norte 0 1020.1 -- 93
2020-11-10 07:00:00 14 5 Nordeste 12 Norte 0 1019.8 -- 94
2020-11-10 06:00:00 14.2 5 Nordeste 12 Nordeste 0 1019.9 -- 94
2020-11-10 05:00:00 14.3 5 Nordeste 12 Nordeste 0 1019.6 -- 94
2020-11-10 04:00:00 14.7 5 Nordeste 12 Este 0 1019.7 -- 93
2020-11-10 03:00:00 14.8 7 Este 12 Este 0 1020 -- 93
2020-11-10 02:00:00 15.3 4 Este 8 Este 0 1020.2 -- 91
2020-11-10 01:00:00 16.3 3 Nordeste 12 Nordeste 0 1020.4 -- 88
2020-11-10 00:00:00 16.9 4 Norte 11 Nordeste 0 1020.6 -- 88
2020-11-09 23:00:00 17.2 4 Norte 12 Norte 0 1020.9 -- 88
2020-11-09 22:00:00 17.5 5 Norte 14 Noroeste 0 1020.7 -- 86
2020-11-09 21:00:00 17.8 7 Noroeste 15 Noroeste 0 1020.5 -- 82
2020-11-09 20:00:00 18 8 Noroeste 14 Noroeste 0 1020.5 -- 79
2020-11-09 19:00:00 18 8 Noroeste 16 Noroeste 0 1019.9 -- 75
2020-11-09 18:00:00 18.7 10 Noroeste 18 Noroeste 0 1019.5 -- 71
2020-11-09 17:00:00 19.2 10 Oeste 19 Oeste 0 1019.3 -- 69
2020-11-09 16:00:00 19.7 12 Oeste 19 Oeste 0 1019.1 -- 68
2020-11-09 15:00:00 19.5 9 Oeste 16 Oeste 0 1019 -- 76
2020-11-09 14:00:00 19.4 9 Noroeste 13 Noroeste 0 1019.3 -- 78
2020-11-09 13:00:00 19.1 6 Noroeste 10 Oeste 0 1019.9 -- 82
2020-11-09 12:00:00 18.1 2 Noroeste 8 Oeste 0 1020.5 -- 86
2020-11-09 11:00:00 17.6 3 Oeste 9 Sudeste 0 1020.4 -- 94
2020-11-09 10:00:00 16.9 4 Sudeste 11 Sudeste 0 1020.2 -- 94
2020-11-09 09:00:00 15.8 6 Este 11 Sudeste 0 1019.4 -- 95
2020-11-09 08:00:00 15.5 6 Sudeste 12 Este 0 1018.8 -- 95
2020-11-09 07:00:00 15.3 3 Este 15 Sudeste 4.7 1018.2 -- 94
2020-11-09 06:00:00 14.9 8 Este 15 Sudeste 0 1017.8 -- 92
2020-11-09 05:00:00 14.5 9 Sudeste 15 Sudeste 0 1017.4 -- 92
2020-11-09 04:00:00 14.8 7 Sudeste 13 Sudeste 0 1017.6 -- 92
2020-11-09 03:00:00 15.4 6 Sudeste 11 Sudeste 0 1017.8 -- 92
2020-11-09 02:00:00 15.4 6 Sudeste 12 Sudeste 0 1017.9 -- 91
2020-11-09 01:00:00 15.8 7 Sudeste 12 Sudeste 0 1018.3 -- 91
2020-11-09 00:00:00 16 7 Sudeste 13 Sudeste 0 1018.6 -- 90
2020-11-08 23:00:00 16.6 5 Sudeste 8 Sudeste 0 1018.6 -- 91
2020-11-08 22:00:00 17.3 4 Sudeste 7 Sudeste 0 1018.5 -- 90
2020-11-08 21:00:00 17.7 3 Sur 9 Sur 0 1018.3 -- 85
2020-11-08 20:00:00 18.1 4 Sur 10 Sudoeste 0 1018.1 -- 83
2020-11-08 19:00:00 18.6 6 Sudoeste 12 Sudoeste 0 1017.8 -- 78
2020-11-08 18:00:00 20.1 10 Sudoeste 17 Sudoeste 0 1017.6 -- 70
2020-11-08 17:00:00 20.8 12 Sudoeste 18 Sudoeste 0 1017.5 -- 67
2020-11-08 16:00:00 22.2 6 Sudoeste 17 Sur 0 1017.5 -- 59
2020-11-08 15:00:00 22.2 8 Sur 19 Sur 0 1017.6 -- 58
2020-11-08 14:00:00 21.8 8 Sur 21 Sur 0 1017.9 -- 59
2020-11-08 13:00:00 21.7 7 Sur 17 Sur 0 1018.5 -- 61
2020-11-08 12:00:00 20.7 6 Sudoeste 15 Sudeste 0 1019.2 -- 66
2020-11-08 11:00:00 19.5 5 Sudeste 14 Sudeste 0 1019.2 -- 74
2020-11-08 10:00:00 16.5 4 Este 8 Este 0 1019.3 -- 87
2020-11-08 09:00:00 15.1 5 Este 9 Sudeste 0 1019 -- 90
2020-11-08 08:00:00 14.6 6 Este 9 Este 0 1018.4 -- 92
2020-11-08 07:00:00 14.6 4 Este 9 Sudeste 0 1018.4 -- 92
2020-11-08 06:00:00 14.6 5 Este 10 Sudeste 0 1018.2 -- 92
2020-11-08 05:00:00 14.4 6 Este 13 Este 0 1018.4 -- 92
2020-11-08 04:00:00 14.9 7 Este 13 Sudeste 0 1018.6 -- 92
2020-11-08 03:00:00 15.3 7 Este 14 Sudeste 0 1018.7 -- 91
2020-11-08 02:00:00 15.2 7 Este 16 Sudeste 0 1018.9 -- 91
2020-11-08 01:00:00 15.5 8 Este 17 Sudeste 0 1019.2 -- 91
2020-11-08 00:00:00 16 8 Este 17 Sudeste 0 1019.4 -- 90
2020-11-07 23:00:00 16.6 7 Sudeste 16 Sudeste 0 1019.5 -- 88
2020-11-07 22:00:00 16.8 6 Este 13 Sudeste 0 1019.4 -- 85
2020-11-07 21:00:00 17.8 5 Sudeste 12 Sudeste 0 1019.6 -- 81
2020-11-07 20:00:00 18.2 4 Sudeste 10 Sudeste 0 1019.2 -- 77
2020-11-07 19:00:00 18.8 3 Sudeste 14 Sur 0 1018.7 -- 72
2020-11-07 18:00:00 20.4 6 Sur 21 Sur 0 1018.4 -- 66
2020-11-07 17:00:00 21.4 7 Sudoeste 22 Sudoeste 0 1018.3 -- 62
2020-11-07 16:00:00 21.3 11 Sudoeste 21 Sudoeste 0 1018.2 -- 61
2020-11-07 15:00:00 21.4 10 Sudoeste 22 Oeste 0 1018.1 -- 59
2020-11-07 14:00:00 20.9 11 Sudoeste 23 Sudoeste 0 1018.3 -- 62
2020-11-07 13:00:00 20.8 12 Sudoeste 25 Sudoeste 0 1018.3 -- 64
2020-11-07 12:00:00 20.7 13 Sudoeste 27 Sudoeste 0 1018.4 -- 66
2020-11-07 11:00:00 19.8 12 Oeste 23 Oeste 0 1017.6 -- 69
2020-11-07 10:00:00 19.2 9 Sudoeste 27 Oeste 0 1017 -- 73
2020-11-07 09:00:00 18 10 Sudoeste 23 Sudoeste 0 1016 -- 76
2020-11-07 08:00:00 17.4 8 Oeste 39 Oeste 0 1014.8 -- 78
2020-11-07 07:00:00 17.7 17 Oeste 36 Sudoeste 0 1013.3 -- 77
2020-11-07 06:00:00 17 20 Oeste 52 Oeste 0.7 1012.2 -- 82
2020-11-07 05:00:00 17.4 27 Oeste 60 Oeste 0.3 1010.7 -- 81
2020-11-07 04:00:00 18 20 Sudoeste 40 Sur 0.1 1009.9 -- 86
2020-11-07 03:00:00 15.3 6 Sudeste 26 Sudeste 0 1010.1 -- 91
2020-11-07 02:00:00 15.5 6 Sudeste 51 Oeste 2.4 1009.7 -- 91
2020-11-07 01:00:00 16 28 Sudoeste 66 Oeste 0.5 1011.2 -- 80
2020-11-07 00:00:00 19.9 23 Sur 39 Sur 0 1009.4 -- 71
2020-11-06 23:00:00 19.4 9 Sudeste 28 Sur 0 1009.2 -- 68
2020-11-06 22:00:00 18.9 7 Sudeste 26 Sudeste 0 1008.1 -- 71
2020-11-06 21:00:00 19.1 10 Sudeste 24 Sudeste 0 1008.1 -- 77
2020-11-06 20:00:00 18.9 9 Este 17 Este 0 1008.4 -- 82
2020-11-06 19:00:00 19.1 6 Sudeste 10 Este 0 1008.7 -- 79
2020-11-06 18:00:00 19.6 8 Oeste 23 Sudoeste 0 1008.6 -- 76
2020-11-06 17:00:00 20.3 7 Sudoeste 26 Sur 0 1008.1 -- 75
2020-11-06 16:00:00 21.3 11 Sur 31 Sur 0 1008.1 -- 78
2020-11-06 15:00:00 21.5 15 Sur 35 Sur 0 1007.7 -- 76
2020-11-06 14:00:00 22.1 13 Sur 28 Sur 0 1007.2 -- 74
2020-11-06 13:00:00 21.6 13 Sur 33 Sur 0 1007.5 -- 76
2020-11-06 12:00:00 22.7 12 Sur 24 Sur 0 1008.1 -- 70
2020-11-06 11:00:00 21.7 5 Sudeste 17 Sur 0 1007.7 2.1 72
2020-11-06 10:00:00 20.3 7 Sur 16 Sur 0 1007.4 -- 75
2020-11-06 09:00:00 19.1 9 Sur 20 Sur 0 1006.7 -- 75
2020-11-06 08:00:00 18.4 6 Sudeste 23 Sur 0 1005.6 -- 75
2020-11-06 07:00:00 18.1 4 Este 17 Este 0 1006 -- 74
2020-11-06 06:00:00 18.3 6 Este 14 Este 0 1007 -- 73
2020-11-06 05:00:00 18.2 4 Sudeste 17 Sudeste 0 1007 -- 73
2020-11-06 04:00:00 18.5 8 Sudeste 17 Sudeste 0 1007.4 -- 73
2020-11-06 03:00:00 18.7 9 Este 20 Este 0 1008 -- 75
2020-11-06 02:00:00 18.4 8 Este 33 Este 0.3 1008.9 -- 80
2020-11-06 01:00:00 19.3 18 Este 34 Este 0 1008.7 -- 73
2020-11-06 00:00:00 19.7 15 Este 44 Sudeste 0 1009.1 -- 69
2020-11-05 23:00:00 19.8 23 Este 42 Sudeste 0 1008.5 -- 70
2020-11-05 22:00:00 19.5 18 Este 35 Este 0 1008.1 -- 71
2020-11-05 21:00:00 19.3 13 Este 38 Sudeste 0 1007.8 -- 75
2020-11-05 20:00:00 19.2 18 Este 35 Este 0 1007.4 -- 77
2020-11-05 19:00:00 19.9 16 Este 35 Sudeste 0 1007.3 -- 72
2020-11-05 18:00:00 20.9 17 Este 37 Sudeste 0 1006.8 -- 65
2020-11-05 17:00:00 21.7 15 Este 38 Sudeste 0 1006.5 -- 58
2020-11-05 16:00:00 23.1 14 Este 29 Este 0 1006.3 -- 49
2020-11-05 15:00:00 24.1 11 Sudeste 30 Este 0 1006.3 -- 40
2020-11-05 14:00:00 24 7 Sudeste 33 Sudeste 0 1007.2 -- 41
2020-11-05 13:00:00 22 12 Sudeste 34 Sur 0 1007.9 -- 46
2020-11-05 12:00:00 20.5 12 Sudeste 31 Sudeste 0 1008.5 -- 58
2020-11-05 11:00:00 18.5 12 Sudeste 29 Sudeste 0 1008.9 -- 68
2020-11-05 10:00:00 17.2 8 Sudeste 27 Sur 0 1009.2 -- 79
2020-11-05 09:00:00 16.2 7 Sudeste 33 Sur 0 1008.5 -- 87
2020-11-05 08:00:00 15.5 8 Sudeste 37 Sudeste 0.7 1008 -- 92
2020-11-05 07:00:00 15.7 9 Sur 33 Sudoeste 1 1007.6 -- 92
2020-11-05 06:00:00 15.9 9 Sudeste 36 Sur 0 1006.9 -- 93
2020-11-05 05:00:00 15.9 13 Sur 32 Sur 0.4 1006.5 -- 94
2020-11-05 04:00:00 15.3 10 Sudeste 25 Sudeste 1.1 1006.1 -- 94
2020-11-05 03:00:00 15.6 10 Sudeste 23 Sudeste 0.8 1006.4 -- 93
2020-11-05 02:00:00 15.8 5 Sudeste 13 Sudeste 0.7 1006.6 -- 91
2020-11-05 01:00:00 15.7 8 Sur 39 Sudoeste 2.9 1006.6 -- 91
2020-11-05 00:00:00 17.2 9 Sur 45 Sudeste 0.6 1007.2 -- 86